sensor_id;sensor_type;location;lat;lon;timestamp;temperature;humidity
42841;DHT22;28491;46.898;7.660;2022-09-16T00:01:19;13.40;99.90
42841;DHT22;28491;46.898;7.660;2022-09-16T00:03:45;13.30;99.90
42841;DHT22;28491;46.898;7.660;2022-09-16T00:06:23;13.30;99.90
42841;DHT22;28491;46.898;7.660;2022-09-16T00:08:49;13.30;99.90
42841;DHT22;28491;46.898;7.660;2022-09-16T00:11:16;13.20;99.90
42841;DHT22;28491;46.898;7.660;2022-09-16T00:13:42;13.20;99.90
42841;DHT22;28491;46.898;7.660;2022-09-16T00:16:10;13.20;99.90
42841;DHT22;28491;46.898;7.660;2022-09-16T00:18:36;13.20;99.90
42841;DHT22;28491;46.898;7.660;2022-09-16T00:21:05;13.10;99.90
42841;DHT22;28491;46.898;7.660;2022-09-16T00:23:31;13.20;99.90
42841;DHT22;28491;46.898;7.660;2022-09-16T00:25:56;13.20;99.90
42841;DHT22;28491;46.898;7.660;2022-09-16T00:28:22;13.20;99.90
42841;DHT22;28491;46.898;7.660;2022-09-16T00:30:48;13.00;99.90
42841;DHT22;28491;46.898;7.660;2022-09-16T00:33:14;12.90;99.90
42841;DHT22;28491;46.898;7.660;2022-09-16T00:35:40;12.90;99.90
42841;DHT22;28491;46.898;7.660;2022-09-16T00:38:05;13.00;99.90
42841;DHT22;28491;46.898;7.660;2022-09-16T00:40:32;13.00;99.90
42841;DHT22;28491;46.898;7.660;2022-09-16T00:42:58;13.00;99.90
42841;DHT22;28491;46.898;7.660;2022-09-16T00:45:25;13.00;99.90
42841;DHT22;28491;46.898;7.660;2022-09-16T00:48:00;13.10;99.90
42841;DHT22;28491;46.898;7.660;2022-09-16T00:50:35;13.10;99.90
42841;DHT22;28491;46.898;7.660;2022-09-16T00:53:04;13.10;99.90
42841;DHT22;28491;46.898;7.660;2022-09-16T00:55:33;13.10;99.90
42841;DHT22;28491;46.898;7.660;2022-09-16T00:58:24;13.00;99.90
42841;DHT22;28491;46.898;7.660;2022-09-16T01:00:53;13.00;99.90
42841;DHT22;28491;46.898;7.660;2022-09-16T01:03:20;13.10;99.90
42841;DHT22;28491;46.898;7.660;2022-09-16T01:05:45;13.10;99.90
42841;DHT22;28491;46.898;7.660;2022-09-16T01:08:12;13.20;99.90
42841;DHT22;28491;46.898;7.660;2022-09-16T01:10:39;13.20;99.90
42841;DHT22;28491;46.898;7.660;2022-09-16T01:13:07;13.20;99.90
42841;DHT22;28491;46.898;7.660;2022-09-16T01:15:59;13.20;99.90
42841;DHT22;28491;46.898;7.660;2022-09-16T01:18:47;13.20;99.90
42841;DHT22;28491;46.898;7.660;2022-09-16T01:21:41;13.20;99.90
42841;DHT22;28491;46.898;7.660;2022-09-16T01:25:10;13.30;99.90
42841;DHT22;28491;46.898;7.660;2022-09-16T01:28:12;13.30;99.90
42841;DHT22;28491;46.898;7.660;2022-09-16T01:33:52;13.40;99.90
42841;DHT22;28491;46.898;7.660;2022-09-16T01:44:24;13.50;99.90
42841;DHT22;28491;46.898;7.660;2022-09-16T01:47:04;13.50;99.90
42841;DHT22;28491;46.898;7.660;2022-09-16T01:49:52;13.50;99.90
42841;DHT22;28491;46.898;7.660;2022-09-16T01:52:40;13.40;99.90
42841;DHT22;28491;46.898;7.660;2022-09-16T01:55:11;13.40;99.90
42841;DHT22;28491;46.898;7.660;2022-09-16T01:57:48;13.50;99.90
42841;DHT22;28491;46.898;7.660;2022-09-16T02:00:14;13.50;99.90
42841;DHT22;28491;46.898;7.660;2022-09-16T02:02:55;13.60;99.90
42841;DHT22;28491;46.898;7.660;2022-09-16T02:05:36;13.60;99.90
42841;DHT22;28491;46.898;7.660;2022-09-16T02:08:13;13.60;99.90
42841;DHT22;28491;46.898;7.660;2022-09-16T02:10:44;13.60;99.90
42841;DHT22;28491;46.898;7.660;2022-09-16T02:13:17;13.60;99.90
42841;DHT22;28491;46.898;7.660;2022-09-16T02:15:46;13.60;99.90
42841;DHT22;28491;46.898;7.660;2022-09-16T02:18:17;13.60;99.90
42841;DHT22;28491;46.898;7.660;2022-09-16T02:20:46;13.60;99.90
42841;DHT22;28491;46.898;7.660;2022-09-16T02:23:15;13.70;99.90
42841;DHT22;28491;46.898;7.660;2022-09-16T02:25:44;13.60;99.90
42841;DHT22;28491;46.898;7.660;2022-09-16T02:28:14;13.60;99.90
42841;DHT22;28491;46.898;7.660;2022-09-16T02:30:47;13.70;99.90
42841;DHT22;28491;46.898;7.660;2022-09-16T02:33:15;13.70;99.90
42841;DHT22;28491;46.898;7.660;2022-09-16T02:35:45;13.70;99.90
42841;DHT22;28491;46.898;7.660;2022-09-16T02:38:21;13.60;99.90
42841;DHT22;28491;46.898;7.660;2022-09-16T02:40:55;13.70;99.90
42841;DHT22;28491;46.898;7.660;2022-09-16T02:43:22;13.70;99.90
42841;DHT22;28491;46.898;7.660;2022-09-16T02:48:38;13.70;99.90
42841;DHT22;28491;46.898;7.660;2022-09-16T02:51:33;13.70;99.90
42841;DHT22;28491;46.898;7.660;2022-09-16T02:54:22;13.70;99.90
42841;DHT22;28491;46.898;7.660;2022-09-16T02:56:49;13.60;99.90
42841;DHT22;28491;46.898;7.660;2022-09-16T02:59:15;13.70;99.90
42841;DHT22;28491;46.898;7.660;2022-09-16T03:01:43;13.70;99.90
42841;DHT22;28491;46.898;7.660;2022-09-16T03:04:11;13.60;99.90
42841;DHT22;28491;46.898;7.660;2022-09-16T03:06:37;13.60;99.90
42841;DHT22;28491;46.898;7.660;2022-09-16T03:09:06;13.60;99.90
42841;DHT22;28491;46.898;7.660;2022-09-16T03:28:29;13.60;99.90
42841;DHT22;28491;46.898;7.660;2022-09-16T03:36:14;13.60;99.90
42841;DHT22;28491;46.898;7.660;2022-09-16T03:38:41;13.60;99.90
42841;DHT22;28491;46.898;7.660;2022-09-16T03:41:08;13.60;99.90
42841;DHT22;28491;46.898;7.660;2022-09-16T03:43:34;13.70;99.90
42841;DHT22;28491;46.898;7.660;2022-09-16T03:46:00;13.60;99.90
42841;DHT22;28491;46.898;7.660;2022-09-16T03:48:26;13.60;99.90
42841;DHT22;28491;46.898;7.660;2022-09-16T03:50:52;13.60;99.90
42841;DHT22;28491;46.898;7.660;2022-09-16T03:53:17;13.60;99.90
42841;DHT22;28491;46.898;7.660;2022-09-16T03:55:43;13.60;99.90
42841;DHT22;28491;46.898;7.660;2022-09-16T03:58:09;13.60;99.90
42841;DHT22;28491;46.898;7.660;2022-09-16T04:00:34;13.60;99.90
42841;DHT22;28491;46.898;7.660;2022-09-16T04:03:01;13.60;99.90
42841;DHT22;28491;46.898;7.660;2022-09-16T04:05:27;13.60;99.90
42841;DHT22;28491;46.898;7.660;2022-09-16T04:07:52;13.60;99.90
42841;DHT22;28491;46.898;7.660;2022-09-16T04:10:18;13.60;99.90
42841;DHT22;28491;46.898;7.660;2022-09-16T04:12:44;13.60;99.90
42841;DHT22;28491;46.898;7.660;2022-09-16T04:15:10;13.60;99.90
42841;DHT22;28491;46.898;7.660;2022-09-16T04:17:36;13.50;99.90
42841;DHT22;28491;46.898;7.660;2022-09-16T04:20:03;13.50;99.90
42841;DHT22;28491;46.898;7.660;2022-09-16T04:22:30;13.50;99.90
42841;DHT22;28491;46.898;7.660;2022-09-16T04:24:56;13.50;99.90
42841;DHT22;28491;46.898;7.660;2022-09-16T04:27:22;13.50;99.90
42841;DHT22;28491;46.898;7.660;2022-09-16T04:29:48;13.40;99.90
42841;DHT22;28491;46.898;7.660;2022-09-16T04:32:13;13.40;99.90
42841;DHT22;28491;46.898;7.660;2022-09-16T04:34:39;13.50;99.90
42841;DHT22;28491;46.898;7.660;2022-09-16T04:37:04;13.50;99.90
42841;DHT22;28491;46.898;7.660;2022-09-16T04:39:30;13.50;99.90
42841;DHT22;28491;46.898;7.660;2022-09-16T04:41:55;13.50;99.90
42841;DHT22;28491;46.898;7.660;2022-09-16T04:44:21;13.50;99.90
42841;DHT22;28491;46.898;7.660;2022-09-16T04:46:46;13.40;99.90
42841;DHT22;28491;46.898;7.660;2022-09-16T04:49:12;13.50;99.90
42841;DHT22;28491;46.898;7.660;2022-09-16T04:51:38;13.40;99.90
42841;DHT22;28491;46.898;7.660;2022-09-16T04:54:04;13.40;99.90
42841;DHT22;28491;46.898;7.660;2022-09-16T04:56:31;13.40;99.90
42841;DHT22;28491;46.898;7.660;2022-09-16T04:59:01;13.40;99.90
42841;DHT22;28491;46.898;7.660;2022-09-16T05:01:32;13.40;99.90
42841;DHT22;28491;46.898;7.660;2022-09-16T05:04:00;13.40;99.90
42841;DHT22;28491;46.898;7.660;2022-09-16T05:06:32;13.40;99.90
42841;DHT22;28491;46.898;7.660;2022-09-16T05:08:58;13.30;99.90
42841;DHT22;28491;46.898;7.660;2022-09-16T05:11:29;13.30;99.90
42841;DHT22;28491;46.898;7.660;2022-09-16T05:14:02;13.30;99.90
42841;DHT22;28491;46.898;7.660;2022-09-16T05:16:28;13.40;99.90
42841;DHT22;28491;46.898;7.660;2022-09-16T05:18:56;13.30;99.90
42841;DHT22;28491;46.898;7.660;2022-09-16T05:21:24;13.30;99.90
42841;DHT22;28491;46.898;7.660;2022-09-16T05:23:50;13.30;99.90
42841;DHT22;28491;46.898;7.660;2022-09-16T05:26:21;13.30;99.90
42841;DHT22;28491;46.898;7.660;2022-09-16T05:28:47;13.40;99.90
42841;DHT22;28491;46.898;7.660;2022-09-16T05:31:22;13.30;99.90
42841;DHT22;28491;46.898;7.660;2022-09-16T05:33:57;13.30;99.90
42841;DHT22;28491;46.898;7.660;2022-09-16T05:36:24;13.30;99.90
42841;DHT22;28491;46.898;7.660;2022-09-16T05:38:50;13.40;99.90
42841;DHT22;28491;46.898;7.660;2022-09-16T05:41:15;13.50;99.90
42841;DHT22;28491;46.898;7.660;2022-09-16T05:43:41;13.50;99.90
42841;DHT22;28491;46.898;7.660;2022-09-16T05:46:16;13.50;99.90
42841;DHT22;28491;46.898;7.660;2022-09-16T05:48:42;13.50;99.90
42841;DHT22;28491;46.898;7.660;2022-09-16T05:51:10;13.50;99.90
42841;DHT22;28491;46.898;7.660;2022-09-16T05:53:38;13.60;99.90
42841;DHT22;28491;46.898;7.660;2022-09-16T05:56:06;13.60;99.90
42841;DHT22;28491;46.898;7.660;2022-09-16T05:58:35;13.60;99.90
42841;DHT22;28491;46.898;7.660;2022-09-16T06:01:05;13.60;99.90
42841;DHT22;28491;46.898;7.660;2022-09-16T06:03:32;13.60;99.90
42841;DHT22;28491;46.898;7.660;2022-09-16T06:06:08;13.60;99.90
42841;DHT22;28491;46.898;7.660;2022-09-16T06:08:35;13.60;99.90
42841;DHT22;28491;46.898;7.660;2022-09-16T06:11:06;13.70;99.90
42841;DHT22;28491;46.898;7.660;2022-09-16T06:13:32;13.70;99.90
42841;DHT22;28491;46.898;7.660;2022-09-16T06:15:59;13.70;99.90
42841;DHT22;28491;46.898;7.660;2022-09-16T06:18:26;13.80;99.90
42841;DHT22;28491;46.898;7.660;2022-09-16T06:20:53;13.80;99.90
42841;DHT22;28491;46.898;7.660;2022-09-16T06:23:19;13.90;99.90
42841;DHT22;28491;46.898;7.660;2022-09-16T06:25:45;13.80;99.90
42841;DHT22;28491;46.898;7.660;2022-09-16T06:28:11;13.90;99.90
42841;DHT22;28491;46.898;7.660;2022-09-16T06:30:37;14.00;99.90
42841;DHT22;28491;46.898;7.660;2022-09-16T06:33:03;14.10;99.90
42841;DHT22;28491;46.898;7.660;2022-09-16T06:35:29;14.10;99.90
42841;DHT22;28491;46.898;7.660;2022-09-16T06:37:54;14.10;99.90
42841;DHT22;28491;46.898;7.660;2022-09-16T06:40:20;14.20;99.90
42841;DHT22;28491;46.898;7.660;2022-09-16T06:42:46;14.10;99.90
42841;DHT22;28491;46.898;7.660;2022-09-16T06:45:11;14.20;99.90
42841;DHT22;28491;46.898;7.660;2022-09-16T06:47:37;14.20;99.90
42841;DHT22;28491;46.898;7.660;2022-09-16T06:50:03;14.30;99.90
42841;DHT22;28491;46.898;7.660;2022-09-16T06:52:30;14.30;99.90
42841;DHT22;28491;46.898;7.660;2022-09-16T06:54:56;14.30;99.90
42841;DHT22;28491;46.898;7.660;2022-09-16T06:57:21;14.40;99.90
42841;DHT22;28491;46.898;7.660;2022-09-16T06:59:48;14.40;99.90
42841;DHT22;28491;46.898;7.660;2022-09-16T07:02:14;14.40;99.90
42841;DHT22;28491;46.898;7.660;2022-09-16T07:04:40;14.40;99.90
42841;DHT22;28491;46.898;7.660;2022-09-16T07:07:06;14.40;99.70
42841;DHT22;28491;46.898;7.660;2022-09-16T07:09:32;14.50;99.90
42841;DHT22;28491;46.898;7.660;2022-09-16T07:11:58;14.50;99.90
42841;DHT22;28491;46.898;7.660;2022-09-16T07:14:24;14.70;99.60
42841;DHT22;28491;46.898;7.660;2022-09-16T07:16:50;14.70;99.60
42841;DHT22;28491;46.898;7.660;2022-09-16T07:19:15;14.80;98.60
42841;DHT22;28491;46.898;7.660;2022-09-16T07:21:41;15.30;98.80
42841;DHT22;28491;46.898;7.660;2022-09-16T07:24:08;16.20;96.20
42841;DHT22;28491;46.898;7.660;2022-09-16T07:26:34;17.90;90.60
42841;DHT22;28491;46.898;7.660;2022-09-16T07:29:03;19.80;73.00
42841;DHT22;28491;46.898;7.660;2022-09-16T07:31:32;20.30;70.30
42841;DHT22;28491;46.898;7.660;2022-09-16T07:33:59;19.10;69.50
42841;DHT22;28491;46.898;7.660;2022-09-16T07:36:30;18.10;72.90
42841;DHT22;28491;46.898;7.660;2022-09-16T07:38:56;17.40;74.40
42841;DHT22;28491;46.898;7.660;2022-09-16T07:41:31;16.80;76.40
42841;DHT22;28491;46.898;7.660;2022-09-16T07:43:59;16.40;77.70
42841;DHT22;28491;46.898;7.660;2022-09-16T07:46:26;16.10;80.70
42841;DHT22;28491;46.898;7.660;2022-09-16T07:48:52;15.80;81.50
42841;DHT22;28491;46.898;7.660;2022-09-16T07:51:20;15.70;85.90
42841;DHT22;28491;46.898;7.660;2022-09-16T07:53:47;15.50;87.80
42841;DHT22;28491;46.898;7.660;2022-09-16T07:56:15;15.40;90.00
42841;DHT22;28491;46.898;7.660;2022-09-16T07:58:43;15.40;89.90
42841;DHT22;28491;46.898;7.660;2022-09-16T08:01:10;15.30;88.40
42841;DHT22;28491;46.898;7.660;2022-09-16T08:03:37;15.30;89.50
42841;DHT22;28491;46.898;7.660;2022-09-16T08:06:05;15.30;91.10
42841;DHT22;28491;46.898;7.660;2022-09-16T08:08:31;15.40;91.00
42841;DHT22;28491;46.898;7.660;2022-09-16T08:10:58;15.50;88.20
42841;DHT22;28491;46.898;7.660;2022-09-16T08:13:25;15.40;84.50
42841;DHT22;28491;46.898;7.660;2022-09-16T08:15:52;15.70;80.50
42841;DHT22;28491;46.898;7.660;2022-09-16T08:18:18;16.00;84.50
42841;DHT22;28491;46.898;7.660;2022-09-16T08:20:44;16.10;81.10
42841;DHT22;28491;46.898;7.660;2022-09-16T08:23:09;16.20;82.30
42841;DHT22;28491;46.898;7.660;2022-09-16T08:25:35;16.20;80.70
42841;DHT22;28491;46.898;7.660;2022-09-16T08:28:02;16.70;76.80
42841;DHT22;28491;46.898;7.660;2022-09-16T08:30:27;16.70;77.10
42841;DHT22;28491;46.898;7.660;2022-09-16T08:32:57;16.60;73.70
42841;DHT22;28491;46.898;7.660;2022-09-16T08:35:23;16.70;72.20
42841;DHT22;28491;46.898;7.660;2022-09-16T08:37:48;16.80;71.00
42841;DHT22;28491;46.898;7.660;2022-09-16T08:40:15;16.70;72.40
42841;DHT22;28491;46.898;7.660;2022-09-16T08:43:07;16.70;72.90
42841;DHT22;28491;46.898;7.660;2022-09-16T08:45:53;16.90;74.10
42841;DHT22;28491;46.898;7.660;2022-09-16T08:51:01;16.70;71.20
42841;DHT22;28491;46.898;7.660;2022-09-16T08:53:49;16.70;69.60
42841;DHT22;28491;46.898;7.660;2022-09-16T08:56:20;17.00;69.40
42841;DHT22;28491;46.898;7.660;2022-09-16T08:58:50;17.10;72.20
42841;DHT22;28491;46.898;7.660;2022-09-16T09:03:45;18.20;70.80
42841;DHT22;28491;46.898;7.660;2022-09-16T09:09:27;20.70;66.20
42841;DHT22;28491;46.898;7.660;2022-09-16T09:12:20;20.40;65.20
42841;DHT22;28491;46.898;7.660;2022-09-16T09:17:51;20.00;64.40
42841;DHT22;28491;46.898;7.660;2022-09-16T09:21:25;19.50;64.80
42841;DHT22;28491;46.898;7.660;2022-09-16T09:23:34;20.30;63.70
42841;DHT22;28491;46.898;7.660;2022-09-16T09:26:27;20.80;62.10
42841;DHT22;28491;46.898;7.660;2022-09-16T09:29:26;21.60;60.30
42841;DHT22;28491;46.898;7.660;2022-09-16T09:35:17;23.00;60.10
42841;DHT22;28491;46.898;7.660;2022-09-16T09:40:41;23.40;57.60
42841;DHT22;28491;46.898;7.660;2022-09-16T09:46:34;22.40;61.80
42841;DHT22;28491;46.898;7.660;2022-09-16T09:49:12;22.50;60.60
42841;DHT22;28491;46.898;7.660;2022-09-16T09:51:47;22.60;61.20
42841;DHT22;28491;46.898;7.660;2022-09-16T09:54:28;22.20;60.10
42841;DHT22;28491;46.898;7.660;2022-09-16T09:57:04;21.70;60.10
42841;DHT22;28491;46.898;7.660;2022-09-16T10:02:02;20.60;57.60
42841;DHT22;28491;46.898;7.660;2022-09-16T10:04:36;20.20;61.50
42841;DHT22;28491;46.898;7.660;2022-09-16T10:07:03;19.90;61.40
42841;DHT22;28491;46.898;7.660;2022-09-16T10:09:30;19.60;62.30
42841;DHT22;28491;46.898;7.660;2022-09-16T10:11:56;19.30;62.20
42841;DHT22;28491;46.898;7.660;2022-09-16T10:16:51;19.00;63.00
42841;DHT22;28491;46.898;7.660;2022-09-16T10:19:23;18.70;64.70
42841;DHT22;28491;46.898;7.660;2022-09-16T10:22:08;18.80;64.10
42841;DHT22;28491;46.898;7.660;2022-09-16T10:24:39;18.60;64.90
42841;DHT22;28491;46.898;7.660;2022-09-16T10:27:25;18.50;64.80
42841;DHT22;28491;46.898;7.660;2022-09-16T10:30:17;18.40;63.90
42841;DHT22;28491;46.898;7.660;2022-09-16T10:32:55;18.30;65.00
42841;DHT22;28491;46.898;7.660;2022-09-16T10:35:28;18.40;67.00
42841;DHT22;28491;46.898;7.660;2022-09-16T10:38:00;18.40;65.80
42841;DHT22;28491;46.898;7.660;2022-09-16T10:40:26;18.30;65.10
42841;DHT22;28491;46.898;7.660;2022-09-16T10:42:57;18.30;66.10
42841;DHT22;28491;46.898;7.660;2022-09-16T10:45:30;18.40;66.40
42841;DHT22;28491;46.898;7.660;2022-09-16T10:47:59;18.40;66.60
42841;DHT22;28491;46.898;7.660;2022-09-16T10:50:26;18.50;66.00
42841;DHT22;28491;46.898;7.660;2022-09-16T10:52:52;18.40;66.60
42841;DHT22;28491;46.898;7.660;2022-09-16T10:57:44;18.10;68.90
42841;DHT22;28491;46.898;7.660;2022-09-16T11:00:14;18.00;69.30
42841;DHT22;28491;46.898;7.660;2022-09-16T11:08:42;18.10;68.00
42841;DHT22;28491;46.898;7.660;2022-09-16T11:17:00;17.80;67.40
42841;DHT22;28491;46.898;7.660;2022-09-16T11:19:50;17.70;68.10
42841;DHT22;28491;46.898;7.660;2022-09-16T11:22:44;17.60;67.50
42841;DHT22;28491;46.898;7.660;2022-09-16T11:39:52;17.40;69.40
42841;DHT22;28491;46.898;7.660;2022-09-16T11:45:04;17.90;69.80
42841;DHT22;28491;46.898;7.660;2022-09-16T11:50:54;18.30;67.90
42841;DHT22;28491;46.898;7.660;2022-09-16T12:01:37;18.20;68.70
42841;DHT22;28491;46.898;7.660;2022-09-16T12:04:25;18.50;67.90
42841;DHT22;28491;46.898;7.660;2022-09-16T12:06:59;18.70;68.30
42841;DHT22;28491;46.898;7.660;2022-09-16T12:09:50;18.90;66.10
42841;DHT22;28491;46.898;7.660;2022-09-16T12:12:40;18.70;64.20
42841;DHT22;28491;46.898;7.660;2022-09-16T12:18:23;18.80;65.60
42841;DHT22;28491;46.898;7.660;2022-09-16T12:20:56;18.90;63.90
42841;DHT22;28491;46.898;7.660;2022-09-16T12:23:29;19.00;64.60
42841;DHT22;28491;46.898;7.660;2022-09-16T12:26:09;18.80;63.20
42841;DHT22;28491;46.898;7.660;2022-09-16T12:28:38;18.60;62.90
42841;DHT22;28491;46.898;7.660;2022-09-16T12:31:16;18.50;64.20
42841;DHT22;28491;46.898;7.660;2022-09-16T12:33:56;18.30;64.80
42841;DHT22;28491;46.898;7.660;2022-09-16T12:36:34;18.30;64.50
42841;DHT22;28491;46.898;7.660;2022-09-16T12:39:01;18.30;63.70
42841;DHT22;28491;46.898;7.660;2022-09-16T12:52:51;20.10;63.80
42841;DHT22;28491;46.898;7.660;2022-09-16T13:00:57;18.80;62.50
42841;DHT22;28491;46.898;7.660;2022-09-16T13:03:29;18.60;62.60
42841;DHT22;28491;46.898;7.660;2022-09-16T13:06:05;18.40;63.70
42841;DHT22;28491;46.898;7.660;2022-09-16T13:08:32;18.50;64.60
42841;DHT22;28491;46.898;7.660;2022-09-16T13:11:06;18.60;63.50
42841;DHT22;28491;46.898;7.660;2022-09-16T13:13:35;18.50;63.10
42841;DHT22;28491;46.898;7.660;2022-09-16T13:16:03;18.50;63.80
42841;DHT22;28491;46.898;7.660;2022-09-16T13:18:44;18.40;63.20
42841;DHT22;28491;46.898;7.660;2022-09-16T13:23:44;18.20;63.70
42841;DHT22;28491;46.898;7.660;2022-09-16T13:26:11;18.20;63.00
42841;DHT22;28491;46.898;7.660;2022-09-16T13:28:41;18.10;63.40
42841;DHT22;28491;46.898;7.660;2022-09-16T13:33:46;17.90;63.40
42841;DHT22;28491;46.898;7.660;2022-09-16T13:38:46;17.70;64.50
42841;DHT22;28491;46.898;7.660;2022-09-16T13:41:27;17.60;63.30
42841;DHT22;28491;46.898;7.660;2022-09-16T13:43:53;17.60;63.10
42841;DHT22;28491;46.898;7.660;2022-09-16T13:46:35;17.60;63.40
42841;DHT22;28491;46.898;7.660;2022-09-16T13:51:39;17.50;64.00
42841;DHT22;28491;46.898;7.660;2022-09-16T13:54:27;17.50;64.50
42841;DHT22;28491;46.898;7.660;2022-09-16T14:08:47;17.40;62.00
42841;DHT22;28491;46.898;7.660;2022-09-16T14:11:40;17.30;62.60
42841;DHT22;28491;46.898;7.660;2022-09-16T14:14:16;17.20;62.90
42841;DHT22;28491;46.898;7.660;2022-09-16T14:16:43;17.00;62.40
42841;DHT22;28491;46.898;7.660;2022-09-16T14:19:24;16.90;62.80
42841;DHT22;28491;46.898;7.660;2022-09-16T14:22:04;16.90;64.30
42841;DHT22;28491;46.898;7.660;2022-09-16T14:24:35;16.80;61.90
42841;DHT22;28491;46.898;7.660;2022-09-16T14:27:02;16.80;62.00
42841;DHT22;28491;46.898;7.660;2022-09-16T14:29:27;16.80;61.40
42841;DHT22;28491;46.898;7.660;2022-09-16T14:31:54;16.70;62.70
42841;DHT22;28491;46.898;7.660;2022-09-16T14:34:33;16.60;62.50
42841;DHT22;28491;46.898;7.660;2022-09-16T14:37:00;16.60;62.30
42841;DHT22;28491;46.898;7.660;2022-09-16T14:39:26;16.60;62.40
42841;DHT22;28491;46.898;7.660;2022-09-16T14:41:59;16.60;61.80
42841;DHT22;28491;46.898;7.660;2022-09-16T14:44:37;16.50;63.10
42841;DHT22;28491;46.898;7.660;2022-09-16T14:49:38;16.50;64.90
42841;DHT22;28491;46.898;7.660;2022-09-16T14:52:20;16.50;64.10
42841;DHT22;28491;46.898;7.660;2022-09-16T14:54:46;16.50;64.70
42841;DHT22;28491;46.898;7.660;2022-09-16T14:57:22;16.50;65.30
42841;DHT22;28491;46.898;7.660;2022-09-16T14:59:51;16.40;65.60
42841;DHT22;28491;46.898;7.660;2022-09-16T15:02:24;16.40;64.40
42841;DHT22;28491;46.898;7.660;2022-09-16T15:04:58;16.40;64.90
42841;DHT22;28491;46.898;7.660;2022-09-16T15:07:35;16.30;65.00
42841;DHT22;28491;46.898;7.660;2022-09-16T15:10:26;16.40;64.80
42841;DHT22;28491;46.898;7.660;2022-09-16T15:12:58;16.40;64.90
42841;DHT22;28491;46.898;7.660;2022-09-16T15:15:27;16.30;65.50
42841;DHT22;28491;46.898;7.660;2022-09-16T15:18:06;16.40;64.70
42841;DHT22;28491;46.898;7.660;2022-09-16T15:20:35;16.30;66.20
42841;DHT22;28491;46.898;7.660;2022-09-16T15:23:03;16.30;66.30
42841;DHT22;28491;46.898;7.660;2022-09-16T15:25:31;16.30;65.40
42841;DHT22;28491;46.898;7.660;2022-09-16T15:28:05;16.30;64.40
42841;DHT22;28491;46.898;7.660;2022-09-16T15:30:32;16.30;63.80
42841;DHT22;28491;46.898;7.660;2022-09-16T15:32:57;16.30;62.90
42841;DHT22;28491;46.898;7.660;2022-09-16T15:35:24;16.30;63.60
42841;DHT22;28491;46.898;7.660;2022-09-16T15:37:51;16.30;63.10
42841;DHT22;28491;46.898;7.660;2022-09-16T15:42:46;16.20;63.60
42841;DHT22;28491;46.898;7.660;2022-09-16T15:45:16;16.20;63.80
42841;DHT22;28491;46.898;7.660;2022-09-16T15:48:03;16.20;63.30
42841;DHT22;28491;46.898;7.660;2022-09-16T15:50:41;16.10;62.80
42841;DHT22;28491;46.898;7.660;2022-09-16T15:53:33;16.10;62.30
42841;DHT22;28491;46.898;7.660;2022-09-16T15:56:08;16.10;61.90
42841;DHT22;28491;46.898;7.660;2022-09-16T15:58:45;16.00;63.00
42841;DHT22;28491;46.898;7.660;2022-09-16T16:01:21;16.00;62.60
42841;DHT22;28491;46.898;7.660;2022-09-16T16:04:02;15.90;61.40
42841;DHT22;28491;46.898;7.660;2022-09-16T16:06:49;16.00;61.70
42841;DHT22;28491;46.898;7.660;2022-09-16T16:09:31;15.90;62.20
42841;DHT22;28491;46.898;7.660;2022-09-16T16:11:59;15.80;62.00
42841;DHT22;28491;46.898;7.660;2022-09-16T16:14:30;15.80;62.30
42841;DHT22;28491;46.898;7.660;2022-09-16T16:19:29;15.80;63.90
42841;DHT22;28491;46.898;7.660;2022-09-16T16:21:55;15.70;64.20
42841;DHT22;28491;46.898;7.660;2022-09-16T16:24:22;15.70;63.70
42841;DHT22;28491;46.898;7.660;2022-09-16T16:26:49;15.70;63.30
42841;DHT22;28491;46.898;7.660;2022-09-16T16:29:14;15.60;63.50
42841;DHT22;28491;46.898;7.660;2022-09-16T16:31:40;15.60;63.70
42841;DHT22;28491;46.898;7.660;2022-09-16T16:34:21;15.50;64.30
42841;DHT22;28491;46.898;7.660;2022-09-16T16:36:46;15.50;65.10
42841;DHT22;28491;46.898;7.660;2022-09-16T16:39:12;15.40;65.00
42841;DHT22;28491;46.898;7.660;2022-09-16T16:41:37;15.30;65.10
42841;DHT22;28491;46.898;7.660;2022-09-16T16:44:03;15.30;64.10
42841;DHT22;28491;46.898;7.660;2022-09-16T16:46:28;15.30;64.80
42841;DHT22;28491;46.898;7.660;2022-09-16T16:48:54;15.30;66.20
42841;DHT22;28491;46.898;7.660;2022-09-16T16:51:20;15.20;65.50
42841;DHT22;28491;46.898;7.660;2022-09-16T16:53:47;15.20;66.20
42841;DHT22;28491;46.898;7.660;2022-09-16T16:56:13;15.10;67.50
42841;DHT22;28491;46.898;7.660;2022-09-16T16:58:39;15.00;67.60
42841;DHT22;28491;46.898;7.660;2022-09-16T17:01:07;15.00;68.40
42841;DHT22;28491;46.898;7.660;2022-09-16T17:03:33;15.00;68.20
42841;DHT22;28491;46.898;7.660;2022-09-16T17:05:58;15.00;68.00
42841;DHT22;28491;46.898;7.660;2022-09-16T17:08:24;14.90;68.50
42841;DHT22;28491;46.898;7.660;2022-09-16T17:11:13;14.80;68.70
42841;DHT22;28491;46.898;7.660;2022-09-16T17:13:42;14.80;68.70
42841;DHT22;28491;46.898;7.660;2022-09-16T17:16:09;14.90;68.00
42841;DHT22;28491;46.898;7.660;2022-09-16T17:18:36;14.80;68.70
42841;DHT22;28491;46.898;7.660;2022-09-16T17:21:10;14.80;68.50
42841;DHT22;28491;46.898;7.660;2022-09-16T17:23:37;14.80;68.30
42841;DHT22;28491;46.898;7.660;2022-09-16T17:26:03;14.80;70.20
42841;DHT22;28491;46.898;7.660;2022-09-16T17:28:29;14.70;69.10
42841;DHT22;28491;46.898;7.660;2022-09-16T17:30:55;14.70;69.10
42841;DHT22;28491;46.898;7.660;2022-09-16T17:33:21;14.80;69.20
42841;DHT22;28491;46.898;7.660;2022-09-16T17:35:46;14.70;69.70
42841;DHT22;28491;46.898;7.660;2022-09-16T17:38:12;14.70;70.30
42841;DHT22;28491;46.898;7.660;2022-09-16T17:40:38;14.60;70.40
42841;DHT22;28491;46.898;7.660;2022-09-16T17:43:05;14.60;70.20
42841;DHT22;28491;46.898;7.660;2022-09-16T17:45:33;14.50;70.80
42841;DHT22;28491;46.898;7.660;2022-09-16T17:47:59;14.30;70.00
42841;DHT22;28491;46.898;7.660;2022-09-16T17:50:24;14.30;70.60
42841;DHT22;28491;46.898;7.660;2022-09-16T17:52:50;14.20;71.70
42841;DHT22;28491;46.898;7.660;2022-09-16T17:55:16;14.20;71.40
42841;DHT22;28491;46.898;7.660;2022-09-16T17:57:41;14.20;71.10
42841;DHT22;28491;46.898;7.660;2022-09-16T18:00:08;14.10;72.00
42841;DHT22;28491;46.898;7.660;2022-09-16T18:02:34;14.00;72.60
42841;DHT22;28491;46.898;7.660;2022-09-16T18:05:00;14.00;72.90
42841;DHT22;28491;46.898;7.660;2022-09-16T18:07:25;14.00;72.60
42841;DHT22;28491;46.898;7.660;2022-09-16T18:09:51;14.00;72.10
42841;DHT22;28491;46.898;7.660;2022-09-16T18:12:16;14.00;72.60
42841;DHT22;28491;46.898;7.660;2022-09-16T18:14:42;14.10;72.00
42841;DHT22;28491;46.898;7.660;2022-09-16T18:17:07;14.00;69.80
42841;DHT22;28491;46.898;7.660;2022-09-16T18:19:33;14.00;67.30
42841;DHT22;28491;46.898;7.660;2022-09-16T18:21:59;14.00;66.60
42841;DHT22;28491;46.898;7.660;2022-09-16T18:24:24;14.00;67.30
42841;DHT22;28491;46.898;7.660;2022-09-16T18:26:50;14.00;66.40